Time;durP1;ratioP1;P1;durP2;ratioP2;P2;SDS_P1;SDS_P2;PMS_P1;PMS_P2;Temp;Humidity;BMP_temperature;BMP_pressure;BME280_temperature;BME280_humidity;BME280_pressure;Samples;Min_cycle;Max_cycle;Signal;HPM_P1;HPM_P2
2023/04/09 00:01:57;;;;;;;8.32;4.40;;;;;;;17.44;45.51;100851.75;5112607;28;20046;-72
2023/04/09 00:04:25;;;;;;;7.53;4.38;;;;;;;17.40;45.39;100850.31;5112527;28;20105;-71
2023/04/09 00:06:54;;;;;;;7.65;4.40;;;;;;;17.40;45.39;100855.69;5112469;28;20126;-71
2023/04/09 00:09:22;;;;;;;6.72;4.50;;;;;;;17.32;45.47;100837.41;5112332;28;20073;-71
2023/04/09 00:11:50;;;;;;;6.90;4.40;;;;;;;17.34;45.60;100846.22;5112239;28;20048;-72
2023/04/09 00:14:18;;;;;;;6.80;4.38;;;;;;;17.33;45.29;100854.44;5112494;28;20043;-72
2023/04/09 00:16:46;;;;;;;7.28;4.30;;;;;;;17.31;45.47;100845.63;5112263;28;20043;-72
2023/04/09 00:19:16;;;;;;;7.88;4.38;;;;;;;17.27;45.46;100842.31;5112375;28;20473;-72
2023/04/09 00:21:44;;;;;;;7.72;4.50;;;;;;;17.27;45.55;100850.38;5112243;28;20130;-72
2023/04/09 00:24:12;;;;;;;6.78;4.15;;;;;;;17.24;45.50;100855.16;5112111;28;20082;-72
2023/04/09 00:26:41;;;;;;;7.57;4.60;;;;;;;17.20;45.59;100848.31;5112320;28;20093;-72
2023/04/09 00:29:09;;;;;;;7.32;4.22;;;;;;;17.19;45.56;100847.47;5111823;28;20508;-72
2023/04/09 00:31:37;;;;;;;6.68;4.53;;;;;;;17.16;45.60;100843.16;5112078;28;20048;-71
2023/04/09 00:34:05;;;;;;;7.50;4.63;;;;;;;17.15;45.35;100846.81;5111998;28;20058;-71
2023/04/09 00:36:35;;;;;;;6.38;4.50;;;;;;;17.13;45.62;100842.53;5112052;28;20047;-71
2023/04/09 00:39:03;;;;;;;6.95;4.43;;;;;;;17.11;45.47;100844.50;5111966;28;20043;-71
2023/04/09 00:41:31;;;;;;;7.28;4.40;;;;;;;17.10;45.59;100843.66;5112050;28;20047;-72
2023/04/09 00:43:59;;;;;;;7.03;4.53;;;;;;;17.08;45.48;100850.09;5112052;28;20043;-72
2023/04/09 00:46:28;;;;;;;7.15;4.32;;;;;;;17.06;45.52;100844.00;5112010;28;20075;-72
2023/04/09 00:48:56;;;;;;;7.57;4.70;;;;;;;17.04;45.56;100844.09;5111853;28;20083;-70
2023/04/09 00:51:24;;;;;;;7.93;5.10;;;;;;;17.02;45.28;100843.38;5111704;28;20553;-71
2023/04/09 00:53:55;;;;;;;7.35;4.50;;;;;;;16.98;45.43;100841.88;5114919;28;20040;-71
2023/04/09 00:56:26;;;;;;;7.65;4.78;;;;;;;16.98;45.47;100841.03;5116097;28;20480;-72
2023/04/09 00:58:54;;;;;;;7.03;4.50;;;;;;;16.96;45.41;100841.16;5115995;28;20050;-73
2023/04/09 01:01:23;;;;;;;9.10;4.43;;;;;;;16.96;45.41;100843.00;5115919;28;20551;-71
2023/04/09 01:03:51;;;;;;;6.43;4.03;;;;;;;16.94;45.38;100848.50;5115752;28;20075;-72
2023/04/09 01:06:27;;;;;;;6.35;4.40;;;;;;;16.91;45.36;100843.34;5115897;28;20050;-72
2023/04/09 01:09:03;;;;;;;6.75;4.65;;;;;;;16.88;45.36;100839.03;5115827;28;20135;-72
2023/04/09 01:11:37;;;;;;;7.25;4.80;;;;;;;16.87;45.30;100841.84;5115608;28;20569;-71
2023/04/09 01:14:14;;;;;;;7.45;4.55;;;;;;;16.86;45.40;100840.16;5115645;28;20082;-72
2023/04/09 01:16:44;;;;;;;6.90;4.30;;;;;;;16.84;45.23;100842.09;5115944;28;20080;-72
2023/04/09 01:19:30;;;;;;;8.10;4.57;;;;;;;16.83;45.18;100840.38;5115542;28;20043;-72
2023/04/09 01:22:00;;;;;;;7.43;4.97;;;;;;;16.82;45.14;100841.38;5115540;28;20043;-71
2023/04/09 01:24:44;;;;;;;6.82;5.00;;;;;;;16.78;45.11;100839.88;5115317;28;20541;-72
2023/04/09 01:27:15;;;;;;;6.90;4.60;;;;;;;16.77;45.11;100838.16;5115704;28;20049;-72
2023/04/09 01:29:47;;;;;;;6.72;4.68;;;;;;;16.77;45.38;100839.00;5115192;28;20055;-72
2023/04/09 01:32:19;;;;;;;6.78;4.72;;;;;;;16.75;45.25;100837.41;5115503;28;20050;-71
2023/04/09 01:34:48;;;;;;;7.43;4.80;;;;;;;16.74;45.14;100841.09;5115633;28;20044;-72
2023/04/09 01:37:18;;;;;;;7.78;4.60;;;;;;;16.73;45.16;100842.06;5115272;28;20446;-71
2023/04/09 01:39:47;;;;;;;6.90;4.72;;;;;;;16.71;45.12;100847.59;5115456;28;20120;-71
2023/04/09 01:42:16;;;;;;;8.60;5.30;;;;;;;16.69;45.12;100841.44;5115317;28;20104;-71
2023/04/09 01:44:46;;;;;;;7.30;4.93;;;;;;;16.69;45.11;100848.66;5115346;28;20050;-71
2023/04/09 01:47:15;;;;;;;8.45;5.18;;;;;;;16.68;45.14;100838.81;5115235;28;20065;-71
2023/04/09 01:49:45;;;;;;;9.13;5.00;;;;;;;16.63;44.92;100839.19;5114938;28;20495;-71
2023/04/09 01:52:14;;;;;;;7.90;5.15;;;;;;;16.62;45.13;100833.94;5114890;28;20493;-71
2023/04/09 01:54:43;;;;;;;6.60;4.70;;;;;;;16.63;45.09;100846.41;5114789;28;20044;-71
2023/04/09 01:57:11;;;;;;;8.95;5.30;;;;;;;16.62;44.97;100847.41;5114987;28;20047;-71
2023/04/09 01:59:39;;;;;;;7.20;5.10;;;;;;;16.58;44.82;100842.22;5114919;28;20066;-71
2023/04/09 02:02:17;;;;;;;8.60;5.57;;;;;;;16.56;45.00;100841.47;5114609;28;20489;-71
2023/04/09 02:04:49;;;;;;;8.30;5.45;;;;;;;16.57;44.96;100851.28;5113501;28;20052;-71
2023/04/09 02:07:27;;;;;;;7.20;4.90;;;;;;;16.52;45.02;100837.31;5114884;28;20046;-71
2023/04/09 02:09:57;;;;;;;7.65;5.13;;;;;;;16.54;44.90;100851.50;5114596;28;20072;-71
2023/04/09 02:12:25;;;;;;;7.97;4.97;;;;;;;16.48;44.93;100835.81;5114691;28;20044;-71
2023/04/09 02:14:54;;;;;;;7.53;5.15;;;;;;;16.49;44.95;100848.28;5114397;28;20632;-71
2023/04/09 02:17:25;;;;;;;7.97;5.25;;;;;;;16.49;45.03;100848.28;5114443;28;20054;-70
2023/04/09 02:19:53;;;;;;;7.43;5.15;;;;;;;16.49;44.93;100842.06;5114565;28;20097;-71
2023/04/09 02:22:21;;;;;;;8.23;5.22;;;;;;;16.45;44.99;100836.06;5114518;28;20052;-74
2023/04/09 02:24:49;;;;;;;6.25;5.07;;;;;;;16.46;45.05;100837.78;5114400;28;20048;-71
2023/04/09 02:27:18;;;;;;;7.00;4.60;;;;;;;16.45;44.87;100840.59;5114427;28;20411;-71
2023/04/09 02:29:46;;;;;;;7.10;5.28;;;;;;;16.44;44.89;100839.72;5114086;28;20052;-71
2023/04/09 02:32:14;;;;;;;6.93;4.78;;;;;;;16.41;45.15;100837.28;5114397;28;20109;-71
2023/04/09 02:34:44;;;;;;;7.85;4.70;;;;;;;16.42;44.99;100835.44;5114287;28;20051;-71
2023/04/09 02:37:12;;;;;;;7.45;5.00;;;;;;;16.40;44.86;100835.53;5114225;28;20044;-72
2023/04/09 02:39:40;;;;;;;7.20;5.13;;;;;;;16.38;44.97;100834.78;5114108;28;20074;-72
2023/04/09 02:42:09;;;;;;;8.27;5.32;;;;;;;16.37;45.02;100833.06;5113998;28;20051;-72
2023/04/09 02:44:37;;;;;;;8.85;4.97;;;;;;;16.37;45.11;100835.75;5114215;28;20055;-72
2023/04/09 02:47:05;;;;;;;8.45;5.70;;;;;;;16.37;45.01;100834.91;5113978;28;20044;-71
2023/04/09 02:49:33;;;;;;;8.07;5.20;;;;;;;16.35;45.14;100843.09;5113835;28;20498;-72
2023/04/09 02:52:03;;;;;;;7.63;4.78;;;;;;;16.33;45.07;100831.59;5113584;28;20499;-71
2023/04/09 02:54:32;;;;;;;7.43;4.80;;;;;;;16.32;44.99;100835.28;5113765;28;20050;-71
2023/04/09 02:57:00;;;;;;;7.18;5.00;;;;;;;16.30;44.82;100832.66;5113992;28;20067;-72
2023/04/09 02:59:28;;;;;;;8.38;5.38;;;;;;;16.29;45.06;100836.34;5113890;28;20048;-72
2023/04/09 03:01:56;;;;;;;7.18;5.35;;;;;;;16.29;44.92;100835.47;5113836;28;20062;-72
2023/04/09 03:04:24;;;;;;;9.43;5.18;;;;;;;16.25;44.89;100836.69;5113728;28;20047;-71
2023/04/09 03:06:52;;;;;;;7.10;4.75;;;;;;;16.27;45.03;100840.13;5113605;28;20048;-72
2023/04/09 03:09:22;;;;;;;8.45;5.15;;;;;;;16.21;45.08;100835.19;5113226;28;20481;-71
2023/04/09 03:11:51;;;;;;;8.18;5.35;;;;;;;16.22;45.29;100840.47;5113558;28;20048;-71
2023/04/09 03:14:19;;;;;;;7.28;4.97;;;;;;;16.22;45.08;100840.47;5113563;28;20040;-72
2023/04/09 03:16:47;;;;;;;7.57;5.53;;;;;;;16.22;44.90;100845.00;5112396;28;20070;-72
2023/04/09 03:19:15;;;;;;;8.13;5.63;;;;;;;16.20;45.05;100836.16;5113368;28;20096;-72
2023/04/09 03:21:43;;;;;;;7.50;5.30;;;;;;;16.19;44.98;100845.22;5113211;28;20050;-71
2023/04/09 03:24:11;;;;;;;7.78;5.38;;;;;;;16.18;45.13;100832.72;5113114;28;20058;-71
2023/04/09 03:26:41;;;;;;;7.78;5.28;;;;;;;16.17;45.04;100839.09;5113083;28;20079;-71
2023/04/09 03:29:09;;;;;;;7.00;4.75;;;;;;;16.14;45.06;100826.72;5113040;28;20051;-71
2023/04/09 03:31:37;;;;;;;7.07;5.15;;;;;;;16.15;45.34;100838.34;5112999;28;20051;-71
2023/04/09 03:34:05;;;;;;;8.68;5.03;;;;;;;16.14;45.25;100842.03;5113065;28;20075;-71
2023/04/09 03:36:33;;;;;;;7.75;5.88;;;;;;;16.12;45.33;100839.44;5112860;28;20134;-71
2023/04/09 03:39:01;;;;;;;7.18;4.68;;;;;;;16.11;45.15;100837.69;5112806;28;20477;-71
2023/04/09 03:41:30;;;;;;;7.40;5.25;;;;;;;16.11;45.30;100848.47;5112716;28;20047;-71
2023/04/09 03:43:59;;;;;;;7.03;5.07;;;;;;;16.11;45.15;100844.91;5112946;28;20130;-70
2023/04/09 03:46:27;;;;;;;6.90;5.07;;;;;;;16.07;45.16;100844.28;5112814;28;20086;-70
2023/04/09 03:48:55;;;;;;;7.68;5.18;;;;;;;16.03;45.16;100840.97;5112581;28;20135;-70
2023/04/09 03:51:23;;;;;;;7.25;4.80;;;;;;;16.08;45.31;100850.53;5112811;28;20055;-71
2023/04/09 03:53:52;;;;;;;7.72;4.82;;;;;;;16.06;45.18;100852.47;5112894;28;20098;-72
2023/04/09 03:56:21;;;;;;;7.30;4.72;;;;;;;16.04;45.25;100847.22;5112852;28;20062;-70
2023/04/09 03:58:49;;;;;;;7.38;5.00;;;;;;;16.04;45.19;100844.53;5112718;28;20047;-71
2023/04/09 04:01:20;;;;;;;6.22;4.65;;;;;;;15.99;45.19;100835.91;5112517;28;20138;-71
2023/04/09 04:03:48;;;;;;;7.60;5.18;;;;;;;16.01;45.22;100850.97;5112457;28;20386;-72
2023/04/09 04:06:16;;;;;;;6.28;4.80;;;;;;;15.99;45.28;100850.22;5112698;28;20578;-71
2023/04/09 04:08:44;;;;;;;7.18;4.85;;;;;;;15.97;45.16;100851.31;5112538;28;20052;-71
2023/04/09 04:11:13;;;;;;;7.70;5.25;;;;;;;15.99;45.20;100855.63;5112326;28;20089;-71
2023/04/09 04:13:41;;;;;;;6.65;4.85;;;;;;;15.94;45.39;100849.72;5112372;28;20059;-71
2023/04/09 04:16:10;;;;;;;6.43;4.80;;;;;;;15.96;45.29;100850.47;5112301;28;20051;-71
2023/04/09 04:18:40;;;;;;;6.50;4.55;;;;;;;15.95;45.19;100847.91;5112420;28;20181;-71
2023/04/09 04:21:13;;;;;;;9.10;5.60;;;;;;;15.94;45.22;100846.19;5112425;28;20047;-71
2023/04/09 04:23:41;;;;;;;6.70;4.70;;;;;;;15.91;45.24;100841.84;5112163;28;20052;-71
2023/04/09 04:26:10;;;;;;;6.78;4.70;;;;;;;15.93;45.23;100856.09;5112258;28;20085;-71
2023/04/09 04:28:38;;;;;;;6.28;4.82;;;;;;;15.90;45.18;100853.59;5111749;28;20051;-71
2023/04/09 04:31:08;;;;;;;6.38;4.57;;;;;;;15.91;45.40;100863.38;5111930;28;20073;-72
2023/04/09 04:33:37;;;;;;;7.05;4.88;;;;;;;15.90;45.33;100856.28;5111983;28;20043;-72
2023/04/09 04:36:08;;;;;;;7.35;4.35;;;;;;;15.89;45.60;100865.31;5112159;28;20052;-71
2023/04/09 04:38:37;;;;;;;7.20;4.50;;;;;;;15.90;45.83;100867.03;5112114;28;20092;-71
2023/04/09 04:41:06;;;;;;;8.73;4.45;;;;;;;15.94;45.93;100871.25;5112020;28;20058;-72
2023/04/09 04:43:34;;;;;;;6.93;4.53;;;;;;;15.99;46.26;100868.22;5111889;28;20044;-72
2023/04/09 04:46:02;;;;;;;6.07;4.35;;;;;;;16.09;46.31;100866.56;5112144;28;20062;-72
2023/04/09 04:48:31;;;;;;;5.72;4.25;;;;;;;16.20;46.36;100879.22;5112164;28;20376;-72
2023/04/09 04:51:01;;;;;;;6.65;4.60;;;;;;;16.28;46.45;100874.13;5111973;28;20198;-71
2023/04/09 04:53:30;;;;;;;7.75;4.50;;;;;;;16.37;46.25;100876.16;5111828;28;20043;-72
2023/04/09 04:55:58;;;;;;;5.78;4.20;;;;;;;16.43;46.16;100873.00;5111828;28;20047;-72
2023/04/09 04:58:26;;;;;;;6.45;4.13;;;;;;;16.54;46.13;100881.13;5111853;28;20484;-71
2023/04/09 05:00:55;;;;;;;6.20;4.00;;;;;;;16.63;46.00;100874.22;5111988;28;20054;-71
2023/04/09 05:03:23;;;;;;;6.35;3.90;;;;;;;16.72;45.93;100876.25;5111881;28;20055;-71
2023/04/09 05:05:54;;;;;;;6.07;3.90;;;;;;;16.81;45.86;100871.97;5094522;28;20060;-71
2023/04/09 05:08:22;;;;;;;5.82;4.05;;;;;;;16.89;45.80;100866.88;5111673;28;20098;-72
2023/04/09 05:10:54;;;;;;;6.10;4.40;;;;;;;16.97;45.76;100875.19;5112074;28;20051;-71
2023/04/09 05:13:23;;;;;;;5.85;4.20;;;;;;;17.04;45.66;100870.22;5111547;28;20481;-71
2023/04/09 05:15:51;;;;;;;6.57;4.15;;;;;;;17.12;45.56;100874.03;5111813;28;20048;-71
2023/04/09 05:18:19;;;;;;;5.70;3.90;;;;;;;17.20;45.51;100875.28;5111829;28;20054;-71
2023/04/09 05:20:48;;;;;;;5.60;4.22;;;;;;;17.24;45.59;100876.75;5111775;28;20467;-71
2023/04/09 05:23:16;;;;;;;5.90;4.45;;;;;;;17.28;45.42;100870.16;5111575;28;20086;-71
2023/04/09 05:25:44;;;;;;;5.45;3.78;;;;;;;17.30;45.38;100876.28;5111775;28;20070;-70
2023/04/09 05:28:15;;;;;;;5.60;3.90;;;;;;;17.32;45.37;100879.69;5111707;28;20069;-71
2023/04/09 05:30:46;;;;;;;5.43;3.72;;;;;;;17.33;45.45;100884.13;5111392;28;20043;-72
2023/04/09 05:33:15;;;;;;;5.93;3.90;;;;;;;17.33;45.49;100889.50;5111307;28;20614;-72
2023/04/09 05:35:43;;;;;;;6.25;3.90;;;;;;;17.32;45.31;100885.09;5111368;28;20040;-72
2023/04/09 05:38:12;;;;;;;5.68;4.10;;;;;;;17.33;45.51;100886.81;5111509;28;20481;-71
2023/04/09 05:40:41;;;;;;;5.28;4.10;;;;;;;17.33;45.53;100886.81;5114033;28;20066;-71
2023/04/09 05:43:09;;;;;;;5.93;3.90;;;;;;;17.29;45.53;100890.72;5115225;28;20530;-71
2023/04/09 05:45:39;;;;;;;5.38;4.28;;;;;;;17.32;45.39;100895.88;5115135;28;20048;-71
2023/04/09 05:48:07;;;;;;;5.75;4.13;;;;;;;17.28;45.34;100892.56;5114907;28;20416;-71
2023/04/09 05:50:35;;;;;;;6.38;4.38;;;;;;;17.29;45.32;100891.59;5114909;28;20044;-71
2023/04/09 05:53:21;;;;;;;6.35;4.60;;;;;;;17.28;45.13;100902.50;5114906;28;20054;-72
2023/04/09 05:55:49;;;;;;;6.13;4.18;;;;;;;17.25;45.13;100897.31;5114929;28;20062;-71
2023/04/09 05:58:18;;;;;;;6.35;4.22;;;;;;;17.22;45.15;100890.34;5115026;28;20048;-71
2023/04/09 06:00:50;;;;;;;5.38;4.18;;;;;;;17.23;45.07;100902.00;5114729;28;20043;-71
2023/04/09 06:03:18;;;;;;;5.70;4.13;;;;;;;17.19;45.10;100895.13;5114780;28;20138;-72
2023/04/09 06:05:47;;;;;;;5.35;3.80;;;;;;;17.16;45.12;100897.06;5115126;28;20071;-71
2023/04/09 06:08:15;;;;;;;5.40;3.88;;;;;;;17.14;44.91;100909.81;5114755;28;20471;-71
2023/04/09 06:10:43;;;;;;;7.70;4.07;;;;;;;17.13;44.92;100907.22;5114716;28;20087;-71
2023/04/09 06:13:12;;;;;;;6.18;4.30;;;;;;;17.08;45.07;100902.22;5114387;28;20047;-71
2023/04/09 06:15:40;;;;;;;5.25;4.07;;;;;;;17.10;45.10;100907.47;5114776;28;20071;-72
2023/04/09 06:18:10;;;;;;;6.78;4.28;;;;;;;17.08;45.08;100907.59;5114673;28;20047;-71
2023/04/09 06:20:38;;;;;;;7.63;4.38;;;;;;;17.06;44.90;100905.97;5114613;28;20039;-70
2023/04/09 06:23:06;;;;;;;6.90;4.80;;;;;;;17.05;45.00;100906.97;5114512;28;20071;-71
2023/04/09 06:25:35;;;;;;;5.43;4.25;;;;;;;17.04;45.11;100907.94;5114421;28;20047;-72
2023/04/09 06:28:03;;;;;;;7.07;4.90;;;;;;;17.01;44.90;100909.03;5114230;28;20043;-71
2023/04/09 06:30:32;;;;;;;6.15;4.32;;;;;;;16.99;45.01;100911.00;5114273;28;20546;-72
2023/04/09 06:33:00;;;;;;;5.50;4.03;;;;;;;16.98;45.06;100909.25;5113996;28;20496;-72
2023/04/09 06:35:29;;;;;;;6.28;4.38;;;;;;;16.97;44.99;100907.53;5114267;28;20048;-71
2023/04/09 06:37:58;;;;;;;6.32;4.20;;;;;;;16.96;45.00;100919.28;5114157;28;20040;-71
2023/04/09 06:40:26;;;;;;;5.88;4.47;;;;;;;16.93;44.83;100913.28;5113937;28;20048;-72
2023/04/09 06:42:54;;;;;;;7.72;5.00;;;;;;;16.92;44.84;100912.44;5113927;28;20055;-73
2023/04/09 06:45:25;;;;;;;8.30;5.50;;;;;;;16.90;44.98;100917.09;5114091;28;20046;-70
2023/04/09 06:47:53;;;;;;;5.50;4.30;;;;;;;16.90;44.84;100910.84;5113928;28;20139;-72
2023/04/09 06:50:21;;;;;;;7.72;4.93;;;;;;;16.87;44.55;100914.59;5113873;28;20079;-71
2023/04/09 06:52:52;;;;;;;5.82;3.95;;;;;;;16.86;44.68;100921.84;5113748;28;20039;-72
2023/04/09 06:55:20;;;;;;;7.28;4.70;;;;;;;16.84;44.61;100918.41;5113813;28;20138;-72
2023/04/09 06:57:49;;;;;;;6.05;4.00;;;;;;;16.83;44.71;100921.22;5114056;28;20067;-71
2023/04/09 07:00:17;;;;;;;6.40;4.53;;;;;;;16.82;44.58;100924.88;5113655;28;20051;-71
2023/04/09 07:02:46;;;;;;;6.15;4.60;;;;;;;16.81;45.00;100931.25;5113932;28;20416;-71
2023/04/09 07:05:14;;;;;;;6.15;4.20;;;;;;;16.78;44.92;100934.16;5113578;28;20043;-71
2023/04/09 07:07:42;;;;;;;5.88;4.20;;;;;;;16.77;45.03;100935.13;5114171;28;20047;-67
2023/04/09 07:10:12;;;;;;;6.90;4.45;;;;;;;16.76;45.04;100941.50;5113943;28;20051;-67
2023/04/09 07:12:41;;;;;;;6.10;3.97;;;;;;;16.74;44.99;100938.94;5114486;28;20134;-67
2023/04/09 07:15:10;;;;;;;6.25;4.32;;;;;;;16.73;45.00;100933.66;5113554;28;20043;-74
2023/04/09 07:17:38;;;;;;;6.90;4.38;;;;;;;16.72;45.19;100934.66;5113434;28;20043;-73
2023/04/09 07:20:07;;;;;;;8.38;4.22;;;;;;;16.71;45.27;100941.00;5113318;28;20101;-73
2023/04/09 07:22:36;;;;;;;9.20;4.53;;;;;;;16.70;45.15;100948.22;5113236;28;20054;-73
2023/04/09 07:25:06;;;;;;;13.35;4.70;;;;;;;16.70;45.19;100953.63;5113087;28;20054;-72
2023/04/09 07:27:35;;;;;;;9.88;4.63;;;;;;;16.68;45.14;100946.56;5113225;28;20043;-74
2023/04/09 07:30:04;;;;;;;7.70;4.70;;;;;;;16.69;45.24;100942.94;5112920;28;20458;-74
2023/04/09 07:32:32;;;;;;;7.07;4.50;;;;;;;16.68;45.34;100951.94;5113053;28;20054;-73
2023/04/09 07:35:01;;;;;;;7.47;4.53;;;;;;;16.67;45.68;100948.41;5105531;28;20051;-71
2023/04/09 07:37:29;;;;;;;9.63;4.93;;;;;;;16.68;45.82;100943.88;5112396;28;20047;-71
2023/04/09 07:39:57;;;;;;;10.07;4.50;;;;;;;16.68;45.74;100949.25;5109235;28;20048;-69
2023/04/09 07:42:26;;;;;;;7.95;4.60;;;;;;;16.66;45.94;100946.69;5092160;28;20475;-70
2023/04/09 07:44:56;;;;;;;9.15;4.38;;;;;;;16.67;45.90;100952.94;5091818;28;20493;-71
2023/04/09 07:47:24;;;;;;;10.57;4.13;;;;;;;16.66;45.95;100952.06;5092125;28;20101;-71
2023/04/09 07:49:52;;;;;;;6.03;4.60;;;;;;;16.65;46.01;100954.88;5092061;28;20044;-70
2023/04/09 07:52:21;;;;;;;7.13;4.50;;;;;;;16.66;45.90;100962.00;5091971;28;20048;-70
2023/04/09 07:54:49;;;;;;;8.13;4.70;;;;;;;16.67;45.89;100958.31;5091740;28;20059;-69
2023/04/09 07:57:17;;;;;;;7.75;4.82;;;;;;;16.67;46.04;100958.31;5091993;28;20070;-72
2023/04/09 07:59:46;;;;;;;9.95;4.47;;;;;;;16.67;45.96;100959.19;5095332;28;20471;-73
2023/04/09 08:02:16;;;;;;;7.50;4.30;;;;;;;16.68;46.36;100960.94;5111257;28;20047;-66
2023/04/09 08:04:44;;;;;;;9.70;4.40;;;;;;;16.69;46.06;100956.41;5098269;28;20446;-68
2023/04/09 08:07:13;;;;;;;7.93;4.28;;;;;;;16.64;45.75;100945.09;5091684;28;20040;-67
2023/04/09 08:09:41;;;;;;;7.70;4.30;;;;;;;16.66;45.83;100957.47;5091959;28;20040;-66
2023/04/09 08:12:09;;;;;;;10.80;4.35;;;;;;;16.66;45.91;100962.00;5091396;28;20048;-67
2023/04/09 08:14:42;;;;;;;7.35;4.65;;;;;;;16.67;46.00;100963.72;5091053;28;20051;-68
2023/04/09 08:17:10;;;;;;;10.18;5.32;;;;;;;16.66;45.83;100967.38;5091483;28;20052;-67
2023/04/09 08:19:40;;;;;;;9.65;4.88;;;;;;;16.65;45.68;100962.97;5091716;28;20127;-67
2023/04/09 08:22:09;;;;;;;7.72;4.65;;;;;;;16.64;45.91;100964.81;5091244;28;20052;-68
2023/04/09 08:24:38;;;;;;;9.20;4.65;;;;;;;16.65;46.09;100965.66;5091590;28;20048;-68
2023/04/09 08:27:07;;;;;;;7.40;4.50;;;;;;;16.66;46.52;100978.16;5091434;28;20052;-73
2023/04/09 08:29:35;;;;;;;7.07;4.07;;;;;;;16.67;46.58;100969.94;5091044;28;20752;-73
2023/04/09 08:32:04;;;;;;;6.95;4.30;;;;;;;16.70;46.49;100974.31;5091928;28;20044;-73
2023/04/09 08:34:34;;;;;;;8.38;4.25;;;;;;;16.71;46.56;100976.88;5091590;28;20051;-74
2023/04/09 08:37:03;;;;;;;7.75;4.32;;;;;;;16.72;46.45;100972.34;5091707;28;20071;-74
2023/04/09 08:39:33;;;;;;;11.38;4.50;;;;;;;16.72;46.67;100973.22;5091707;28;20072;-78
2023/04/09 08:42:01;;;;;;;11.57;4.45;;;;;;;16.72;46.82;100964.28;5091323;28;20092;-77
2023/04/09 08:44:30;;;;;;;10.38;4.50;;;;;;;16.77;46.98;100980.94;5091001;28;20098;-77
2023/04/09 08:47:00;;;;;;;12.95;4.68;;;;;;;16.82;47.23;100984.16;5091176;28;20136;-77
2023/04/09 08:49:28;;;;;;;9.00;4.30;;;;;;;16.92;47.61;100984.34;5091250;28;20048;-77
2023/04/09 08:51:56;;;;;;;8.00;4.38;;;;;;;17.01;47.35;100984.50;5090851;28;20050;-77
2023/04/09 08:54:26;;;;;;;11.90;4.10;;;;;;;17.13;47.22;100982.72;5090712;28;20055;-78
2023/04/09 08:56:55;;;;;;;11.85;4.28;;;;;;;17.25;47.15;100987.16;5091152;28;20060;-77
2023/04/09 08:59:29;;;;;;;8.45;3.92;;;;;;;17.31;47.21;100993.94;5091461;28;20048;-77
2023/04/09 09:02:08;;;;;;;8.55;4.28;;;;;;;17.40;47.02;100986.00;5091339;28;20565;-76
2023/04/09 09:04:47;;;;;;;10.50;3.65;;;;;;;17.52;46.94;100989.56;5090825;28;20117;-76
2023/04/09 09:07:16;;;;;;;6.65;3.88;;;;;;;17.64;46.71;100994.00;5091180;28;20047;-75
2023/04/09 09:09:53;;;;;;;10.18;4.18;;;;;;;17.74;46.42;100999.56;5091193;28;20056;-75
2023/04/09 09:12:36;;;;;;;6.97;3.65;;;;;;;17.86;46.51;100984.28;5090738;28;20151;-76
2023/04/09 09:15:24;;;;;;;6.70;3.92;;;;;;;17.96;46.34;100993.38;5092480;28;20048;-76
2023/04/09 09:17:55;;;;;;;6.82;3.45;;;;;;;18.06;46.23;100988.94;5095304;28;20055;-76
2023/04/09 09:20:24;;;;;;;6.13;3.63;;;;;;;18.16;46.08;100995.31;5094954;28;20052;-76
2023/04/09 09:22:54;;;;;;;8.93;4.07;;;;;;;18.25;46.00;100999.13;5094630;28;20048;-78
2023/04/09 09:25:24;;;;;;;7.47;4.00;;;;;;;18.33;45.96;100995.78;5094895;28;20048;-71
2023/04/09 09:27:54;;;;;;;8.18;3.85;;;;;;;18.44;46.12;100993.09;5094951;28;20048;-78
2023/04/09 09:30:23;;;;;;;11.55;4.00;;;;;;;18.57;45.87;100991.09;5094307;28;20505;-74
2023/04/09 09:32:53;;;;;;;8.38;3.88;;;;;;;18.68;45.59;100987.56;5094321;28;20113;-74
2023/04/09 09:35:22;;;;;;;7.97;4.00;;;;;;;18.77;45.53;100993.06;5095423;28;20085;-71
2023/04/09 09:38:03;;;;;;;6.43;3.78;;;;;;;18.86;45.45;100989.59;5094862;28;20139;-76
2023/04/09 09:40:32;;;;;;;7.22;3.90;;;;;;;18.96;45.69;100983.41;5094588;28;20044;-76
2023/04/09 09:43:00;;;;;;;10.90;4.07;;;;;;;19.02;45.44;100983.78;5094395;28;20040;-75
2023/04/09 09:45:29;;;;;;;9.50;4.38;;;;;;;19.06;45.33;100985.22;5094111;28;20055;-73
2023/04/09 09:48:00;;;;;;;8.93;4.25;;;;;;;19.09;45.64;100982.25;5094059;28;20047;-73
2023/04/09 09:50:31;;;;;;;9.77;4.32;;;;;;;19.13;45.43;100983.72;5094350;28;20059;-73
2023/04/09 09:53:04;;;;;;;9.57;4.10;;;;;;;19.17;45.52;100987.00;5093493;28;20058;-74
2023/04/09 09:55:37;;;;;;;6.70;3.67;;;;;;;19.23;45.26;100978.38;5094125;28;20056;-73
2023/04/09 09:58:10;;;;;;;;;;;;;;;19.28;45.64;100983.38;5094710;28;20048;-74
2023/04/09 10:00:40;;;;;;;7.78;3.80;;;;;;;19.29;45.28;100980.56;5094266;28;19920;-74
2023/04/09 10:03:14;;;;;;;8.93;4.00;;;;;;;19.35;45.15;100980.03;5093914;28;20090;-73
2023/04/09 10:05:44;;;;;;;7.00;3.90;;;;;;;19.41;45.42;100979.53;5093503;28;20136;-73
2023/04/09 10:08:13;;;;;;;7.78;3.88;;;;;;;19.48;45.33;100979.84;5094044;28;20048;-74
2023/04/09 10:10:43;;;;;;;8.90;4.03;;;;;;;19.54;44.97;100978.47;5093841;28;20091;-74
2023/04/09 10:13:20;;;;;;;7.55;3.83;;;;;;;19.59;45.14;100978.94;5093581;28;20048;-74
2023/04/09 10:15:49;;;;;;;7.28;3.60;;;;;;;19.68;44.76;100980.84;5099718;28;20077;-74
2023/04/09 10:18:18;;;;;;;8.38;4.03;;;;;;;19.74;44.82;100983.03;5093745;28;20048;-74
2023/04/09 10:20:51;;;;;;;7.93;3.70;;;;;;;19.78;44.76;100981.75;5093646;28;20117;-75
2023/04/09 10:23:28;;;;;;;7.72;3.83;;;;;;;19.85;44.85;100980.25;5093321;28;20051;-76
2023/04/09 10:25:58;;;;;;;9.40;3.75;;;;;;;19.92;44.64;100984.13;5092894;28;20044;-75
2023/04/09 10:28:26;;;;;;;6.35;3.70;;;;;;;19.99;44.53;100974.50;5093458;28;20045;-76
2023/04/09 10:30:56;;;;;;;9.90;3.90;;;;;;;20.05;44.50;100977.63;5093614;28;20048;-76
2023/04/09 10:33:26;;;;;;;7.25;3.33;;;;;;;20.13;44.59;100970.53;5093254;28;20040;-75
2023/04/09 10:35:59;;;;;;;9.88;3.58;;;;;;;20.16;44.46;100970.25;5093520;28;20417;-76
2023/04/09 10:38:34;;;;;;;10.60;3.70;;;;;;;20.19;44.61;100980.00;5093225;28;20503;-70
2023/04/09 10:41:16;;;;;;;9.32;4.13;;;;;;;20.18;44.39;100973.72;5095367;28;20044;-69
2023/04/09 10:43:47;;;;;;;7.78;3.80;;;;;;;20.20;44.75;100977.13;5093286;28;20093;-78
2023/04/09 10:46:31;;;;;;;7.57;4.07;;;;;;;20.23;44.67;100978.72;5094045;28;20532;-79
2023/04/09 10:49:10;;;;;;;7.20;4.00;;;;;;;20.21;44.88;100972.56;5092303;28;20044;-77
2023/04/09 10:51:44;;;;;;;8.55;3.90;;;;;;;20.20;45.48;100974.44;5094140;28;20044;-77
2023/04/09 10:54:44;;;;;;;10.32;4.00;;;;;;;20.21;45.62;100978.00;5092861;28;20127;-79
2023/04/09 10:57:19;;;;;;;11.10;4.00;;;;;;;20.19;45.36;100974.56;5091867;28;20485;-78
2023/04/09 10:59:49;;;;;;;7.03;3.80;;;;;;;20.17;45.69;100976.53;5092697;28;20408;-78
2023/04/09 11:02:48;;;;;;;7.60;3.72;;;;;;;20.14;45.38;100965.97;5092819;28;20052;-80
2023/04/09 11:05:26;;;;;;;7.63;3.75;;;;;;;20.12;45.82;100970.69;5093387;28;20048;-78
2023/04/09 11:08:02;;;;;;;10.23;4.00;;;;;;;20.10;45.82;100959.16;5093066;28;20052;-78
2023/04/09 11:10:31;;;;;;;6.53;3.63;;;;;;;20.05;45.71;100964.09;5093029;28;20044;-80
2023/04/09 11:13:01;;;;;;;7.20;3.70;;;;;;;20.01;45.67;100958.97;5092924;28;20085;-80
2023/04/09 11:15:31;;;;;;;7.03;3.92;;;;;;;19.99;45.91;100963.66;5093581;28;20055;-79
2023/04/09 11:17:59;;;;;;;7.60;4.05;;;;;;;19.96;45.82;100963.91;5093744;28;20120;-80
2023/04/09 11:20:29;;;;;;;7.13;4.03;;;;;;;19.94;45.55;100968.59;5093759;28;20393;-80
2023/04/09 11:22:59;;;;;;;7.57;4.15;;;;;;;19.91;46.13;100968.88;5094322;28;20048;-78
2023/04/09 11:25:29;;;;;;;7.35;3.80;;;;;;;19.88;45.50;100966.47;5093287;28;20044;-77
2023/04/09 11:27:58;;;;;;;7.40;3.50;;;;;;;19.82;45.70;100961.56;5092286;28;20044;-78
2023/04/09 11:39:39;;;;;;;8.98;4.20;;;;;;;19.72;45.66;100957.97;5092496;28;20048;-74
2023/04/09 11:42:07;;;;;;;6.45;3.83;;;;;;;19.71;45.73;100958.97;5092327;28;20040;-75
2023/04/09 11:44:35;;;;;;;9.90;4.90;;;;;;;19.67;45.54;100957.50;5091967;28;20055;-76
2023/04/09 11:47:04;;;;;;;6.38;3.65;;;;;;;19.64;45.19;100960.47;5092461;28;20093;-75